Airfield :
LOGIN :

Register | Disclaimer

   EN    FR    IT 

 










Legend :    VFR   Marginal VFR   IFR   Intensive IFR   Very Intensive IFR
Visi :
Ceiling :
>= 8 km
>= 3000ft
5 to 8 km
1000 to 3000 ft
1500m to 5 km
500 to 1000 ft
800 to 1500m
200 to 500 ft
< 800m
< 200 ft
Symbols :   Thunderstorms  Fog  Heavy snow  Heavy precipitations  Wind > 20 kt
SIGMETs :     Misc.  Thunderstorms  Icing  Turbulence  Mountain Waves  Volcanic Ashes







- Airport Elevation : 32 ft
- IATA code : LKZ


EGUL - RAF Lakenheath

CURRENT METAR :
  • 180256Z AUTO 00000KT 9999 CLR 03/02 A3037 RMK AO2 SLPNO T00260019 50003 $

EXPIRED METARs :
  • 180156Z AUTO 00000KT 9999 CLR 03/02 A3037 RMK AO2 SLPNO T00300024 $
  • 180056Z AUTO 00000KT 9999 CLR 03/03 A3037 RMK AO2 SLPNO T00340028 $

TAF TAF EGUL
Valid from the 17 at 21:00 until the 19 at 03:00 UTC


172100Z 1721/1903 03009KT 9999 SCT030 QNH3035INS
BECMG 1800/1801 31006KT 8000 BR FEW030 QNH3028INS
BECMG 1807/1808 33006KT 9999 NSW SCT030 QNH3041INS TX18/1815Z TN06/1803Z LAST NO AMDS AFT 1721 NEXT 1805
No reported NOTAMs for that airfield.



MET'MAP, your aeronautical weather chart ! - Copyright ORBIFLY December 2007 - Disclaimer

ORBIFLY MET'MAP TEAM :

Programming & Development : Alexandra Zaïnal
Concept & Development : Baudouin d'Aumeries
Co-Development & Prog : Marc-Olivier Méhu
Technical & hardware support : Manuel Goepfert

Contact : metmap@orbifly.com




SOURCES & CREDITS :

   NOAA